Time;durP1;ratioP1;P1;durP2;ratioP2;P2;SDS_P1;SDS_P2;PMS_P1;PMS_P2;Temp;Humidity;BMP_temperature;BMP_pressure;BME280_temperature;BME280_humidity;BME280_pressure;Samples;Min_cycle;Max_cycle;Signal;HPM_P1;HPM_P2
2022/03/14 00:01:32;;;;;;;10.73;5.20;;;;;;;;;;4997607;28;20049;-81
2022/03/14 00:03:58;;;;;;;12.15;5.93;;;;;;;;;;5002698;28;20026;-80
2022/03/14 00:06:24;;;;;;;10.63;5.28;;;;;;;;;;5006493;28;20060;-80
2022/03/14 00:08:52;;;;;;;9.95;5.25;;;;;;;;;;5005839;28;20049;-79
2022/03/14 00:11:18;;;;;;;11.95;4.95;;;;;;;;;;5007528;28;20056;-80
2022/03/14 00:13:46;;;;;;;10.45;5.20;;;;;;;;;;5000020;28;20042;-80
2022/03/14 00:16:15;;;;;;;9.80;4.85;;;;;;;;;;4993966;28;20113;-80
2022/03/14 00:18:51;;;;;;;11.20;4.85;;;;;;;;;;5006392;28;20026;-79
2022/03/14 00:21:18;;;;;;;9.88;4.55;;;;;;;;;;4992798;28;20046;-80
2022/03/14 00:23:44;;;;;;;10.68;5.75;;;;;;;;;;4990828;28;20544;-79
2022/03/14 00:26:09;;;;;;;10.55;5.32;;;;;;;;;;5013542;28;20026;-78
2022/03/14 00:28:35;;;;;;;13.90;5.05;;;;;;;;;;5007535;28;20030;-79
2022/03/14 00:31:00;;;;;;;11.38;5.43;;;;;;;;;;5007113;28;20018;-79
2022/03/14 00:33:26;;;;;;;10.65;5.78;;;;;;;;;;5000907;28;20049;-79
2022/03/14 00:35:51;;;;;;;10.77;4.93;;;;;;;;;;5004850;28;20030;-79
2022/03/14 00:38:16;;;;;;;10.95;4.82;;;;;;;;;;5008963;28;20026;-78
2022/03/14 00:40:42;;;;;;;8.90;5.05;;;;;;;;;;5005846;28;20090;-80
2022/03/14 00:43:07;;;;;;;12.82;5.38;;;;;;;;;;5011786;28;20014;-80
2022/03/14 00:45:34;;;;;;;11.88;5.68;;;;;;;;;;5011136;28;20083;-80
2022/03/14 00:47:59;;;;;;;11.10;5.07;;;;;;;;;;5007667;28;20536;-81
2022/03/14 00:50:25;;;;;;;11.48;4.95;;;;;;;;;;5008375;28;20046;-81
2022/03/14 00:52:50;;;;;;;11.55;5.32;;;;;;;;;;5001821;28;20033;-79
2022/03/14 00:55:15;;;;;;;12.48;5.70;;;;;;;;;;5016801;28;20017;-79
2022/03/14 00:57:41;;;;;;;10.38;5.07;;;;;;;;;;5006149;28;20552;-81
2022/03/14 01:00:06;;;;;;;13.82;5.25;;;;;;;;;;5012490;28;20029;-80
2022/03/14 01:02:31;;;;;;;9.38;5.35;;;;;;;;;;5006567;28;20022;-80
2022/03/14 01:04:57;;;;;;;10.07;5.03;;;;;;;;;;5002853;28;20429;-81
2022/03/14 01:07:22;;;;;;;8.93;4.68;;;;;;;;;;4987896;28;20026;-80
2022/03/14 01:09:47;;;;;;;9.82;4.90;;;;;;;;;;4996910;28;20033;-78
2022/03/14 01:12:13;;;;;;;11.43;5.03;;;;;;;;;;5012163;28;20029;-78
2022/03/14 01:14:38;;;;;;;11.93;4.82;;;;;;;;;;5012879;28;20018;-80
2022/03/14 01:17:04;;;;;;;9.38;5.20;;;;;;;;;;5015532;28;20030;-80
2022/03/14 01:19:29;;;;;;;10.93;4.72;;;;;;;;;;4996545;28;20093;-80
2022/03/14 01:21:54;;;;;;;13.73;4.70;;;;;;;;;;5011529;28;20064;-80
2022/03/14 01:24:20;;;;;;;9.27;4.53;;;;;;;;;;4985727;28;20161;-79
2022/03/14 01:26:45;;;;;;;11.50;4.95;;;;;;;;;;5004692;28;20117;-81
2022/03/14 01:29:10;;;;;;;9.35;4.95;;;;;;;;;;5008377;28;20025;-80
2022/03/14 01:31:36;;;;;;;12.30;4.80;;;;;;;;;;5010339;28;20053;-80
2022/03/14 01:34:01;;;;;;;10.93;4.63;;;;;;;;;;5010395;28;20508;-80
2022/03/14 01:36:26;;;;;;;10.10;4.75;;;;;;;;;;5006998;28;20018;-81
2022/03/14 01:38:51;;;;;;;10.75;5.00;;;;;;;;;;5011891;28;20085;-80
2022/03/14 01:41:22;;;;;;;10.32;4.63;;;;;;;;;;4994236;28;20477;-78
2022/03/14 01:43:48;;;;;;;11.85;5.00;;;;;;;;;;5007801;28;20037;-80
2022/03/14 01:46:16;;;;;;;8.98;4.68;;;;;;;;;;5011025;28;20034;-78
2022/03/14 01:48:42;;;;;;;11.00;4.90;;;;;;;;;;5003064;28;20101;-77
2022/03/14 01:51:07;;;;;;;12.57;5.05;;;;;;;;;;4998525;28;20050;-78
2022/03/14 01:53:32;;;;;;;10.52;5.38;;;;;;;;;;5002551;28;20109;-78
2022/03/14 01:55:58;;;;;;;10.88;5.07;;;;;;;;;;5003019;28;20034;-78
2022/03/14 01:58:23;;;;;;;10.82;5.13;;;;;;;;;;4988580;28;20025;-80
2022/03/14 02:00:48;;;;;;;9.85;5.15;;;;;;;;;;5005274;28;20084;-79
2022/03/14 02:03:13;;;;;;;10.35;4.93;;;;;;;;;;5013142;28;20018;-78
2022/03/14 02:05:40;;;;;;;10.00;4.90;;;;;;;;;;4977264;28;20486;-79
2022/03/14 02:08:05;;;;;;;11.10;5.18;;;;;;;;;;5007785;28;20103;-79
2022/03/14 02:10:31;;;;;;;10.10;4.80;;;;;;;;;;5008776;28;20038;-83
2022/03/14 02:12:56;;;;;;;14.35;5.45;;;;;;;;;;4986995;28;20113;-81
2022/03/14 02:15:22;;;;;;;9.05;5.18;;;;;;;;;;5010159;28;20029;-83
2022/03/14 02:17:47;;;;;;;11.25;4.95;;;;;;;;;;5012541;28;20516;-82
2022/03/14 02:20:12;;;;;;;10.55;4.88;;;;;;;;;;5017142;28;20022;-80
2022/03/14 02:22:37;;;;;;;11.27;5.05;;;;;;;;;;4984501;28;20513;-79
2022/03/14 02:25:07;;;;;;;11.38;5.00;;;;;;;;;;5003352;28;20108;-80
2022/03/14 02:27:32;;;;;;;10.18;4.68;;;;;;;;;;4983451;28;20125;-81
2022/03/14 02:29:58;;;;;;;8.57;4.60;;;;;;;;;;5011263;28;20116;-79
2022/03/14 02:32:23;;;;;;;8.52;4.80;;;;;;;;;;4988626;28;20523;-80
2022/03/14 02:34:48;;;;;;;11.85;4.70;;;;;;;;;;5003336;28;20033;-80
2022/03/14 02:37:13;;;;;;;12.57;5.75;;;;;;;;;;4992116;28;20018;-80
2022/03/14 02:39:39;;;;;;;8.75;4.95;;;;;;;;;;4998719;28;20027;-81
2022/03/14 02:42:05;;;;;;;9.95;4.95;;;;;;;;;;4982927;28;20149;-80
2022/03/14 02:44:31;;;;;;;8.80;4.70;;;;;;;;;;4999653;28;20053;-80
2022/03/14 02:46:57;;;;;;;10.52;4.95;;;;;;;;;;5001408;28;20030;-80
2022/03/14 02:49:22;;;;;;;9.68;4.63;;;;;;;;;;5000539;28;20026;-80
2022/03/14 02:51:47;;;;;;;11.15;5.32;;;;;;;;;;4976200;28;20406;-81
2022/03/14 02:54:13;;;;;;;9.30;4.97;;;;;;;;;;4996896;28;20502;-80
2022/03/14 02:56:39;;;;;;;11.15;4.85;;;;;;;;;;4992810;28;20127;-79
2022/03/14 02:59:06;;;;;;;8.32;4.80;;;;;;;;;;5009078;28;20033;-80
2022/03/14 03:01:32;;;;;;;11.32;5.03;;;;;;;;;;5007138;28;20026;-81
2022/03/14 03:03:57;;;;;;;9.85;5.18;;;;;;;;;;5006227;28;20199;-80
2022/03/14 03:06:22;;;;;;;11.00;4.68;;;;;;;;;;5003953;28;20029;-81
2022/03/14 03:08:48;;;;;;;9.63;4.78;;;;;;;;;;5016964;28;20033;-81
2022/03/14 03:11:14;;;;;;;10.68;4.95;;;;;;;;;;5002539;28;20030;-81
2022/03/14 03:13:41;;;;;;;13.55;5.18;;;;;;;;;;5005621;28;20049;-80
2022/03/14 03:16:07;;;;;;;9.65;5.22;;;;;;;;;;5004589;28;20022;-81
2022/03/14 03:18:33;;;;;;;12.40;5.03;;;;;;;;;;5003687;28;20102;-81
2022/03/14 03:20:58;;;;;;;10.77;5.18;;;;;;;;;;4997847;28;20053;-81
2022/03/14 03:23:23;;;;;;;8.55;4.72;;;;;;;;;;5009453;28;20076;-81
2022/03/14 03:25:48;;;;;;;9.50;5.15;;;;;;;;;;4982507;28;20413;-81
2022/03/14 03:28:14;;;;;;;13.27;5.47;;;;;;;;;;5009988;28;20018;-79
2022/03/14 03:30:39;;;;;;;9.65;4.78;;;;;;;;;;5007790;28;20025;-79
2022/03/14 03:33:05;;;;;;;12.63;5.53;;;;;;;;;;5013589;28;20100;-79
2022/03/14 03:35:30;;;;;;;14.48;5.75;;;;;;;;;;5013414;28;20030;-80
2022/03/14 03:37:55;;;;;;;11.45;5.25;;;;;;;;;;5013630;28;20025;-81
2022/03/14 03:40:20;;;;;;;13.63;5.78;;;;;;;;;;4986019;28;20023;-82
2022/03/14 03:42:46;;;;;;;13.40;6.88;;;;;;;;;;5005789;28;20453;-81
2022/03/14 03:45:13;;;;;;;14.88;5.85;;;;;;;;;;5003496;28;20113;-82
2022/03/14 03:47:38;;;;;;;13.02;5.40;;;;;;;;;;5012364;28;20456;-79
2022/03/14 03:50:04;;;;;;;11.75;4.80;;;;;;;;;;5007878;28;20022;-79
2022/03/14 03:52:29;;;;;;;9.95;5.15;;;;;;;;;;4992361;28;20037;-79
2022/03/14 03:54:54;;;;;;;12.63;6.05;;;;;;;;;;5014857;28;20113;-79
2022/03/14 03:57:19;;;;;;;19.48;8.73;;;;;;;;;;5004310;28;20014;-78
2022/03/14 03:59:45;;;;;;;19.42;8.55;;;;;;;;;;5014458;28;20398;-79
2022/03/14 04:02:10;;;;;;;17.15;7.60;;;;;;;;;;5006523;28;20076;-80
2022/03/14 04:04:35;;;;;;;11.02;5.28;;;;;;;;;;5005976;28;20526;-79
2022/03/14 04:07:01;;;;;;;9.88;5.18;;;;;;;;;;5004770;28;20030;-79
2022/03/14 04:09:27;;;;;;;9.50;4.93;;;;;;;;;;5008006;28;20029;-79
2022/03/14 04:11:52;;;;;;;17.20;6.90;;;;;;;;;;4996613;28;20026;-78
2022/03/14 04:14:20;;;;;;;11.68;5.95;;;;;;;;;;5007220;28;20369;-80
2022/03/14 04:16:46;;;;;;;12.07;5.55;;;;;;;;;;5002392;28;20081;-80
2022/03/14 04:19:11;;;;;;;13.15;5.70;;;;;;;;;;5009549;28;20056;-81
2022/03/14 04:21:37;;;;;;;9.95;5.65;;;;;;;;;;5014039;28;20528;-80
2022/03/14 04:24:06;;;;;;;10.90;5.53;;;;;;;;;;4999273;28;20672;-82
2022/03/14 04:26:31;;;;;;;12.65;6.40;;;;;;;;;;4999741;28;20540;-80
2022/03/14 04:28:57;;;;;;;13.95;5.05;;;;;;;;;;5007037;28;20115;-80
2022/03/14 04:31:22;;;;;;;16.80;7.80;;;;;;;;;;5012475;28;20490;-82
2022/03/14 04:33:47;;;;;;;12.82;6.00;;;;;;;;;;5019100;28;20366;-81
2022/03/14 04:36:13;;;;;;;10.98;5.47;;;;;;;;;;4994480;28;20034;-82
2022/03/14 04:38:38;;;;;;;11.77;5.35;;;;;;;;;;5013739;28;20026;-82
2022/03/14 04:41:04;;;;;;;9.52;5.07;;;;;;;;;;5027313;28;20029;-82
2022/03/14 04:43:29;;;;;;;9.15;4.70;;;;;;;;;;5000392;28;20022;-82
2022/03/14 04:45:54;;;;;;;13.75;6.25;;;;;;;;;;5022828;28;20026;-81
2022/03/14 04:48:19;;;;;;;12.65;5.75;;;;;;;;;;4996192;28;20047;-82
2022/03/14 04:50:45;;;;;;;9.10;4.90;;;;;;;;;;5002509;28;20030;-83
2022/03/14 04:53:11;;;;;;;13.77;6.03;;;;;;;;;;5017376;28;20056;-81
2022/03/14 04:55:36;;;;;;;18.77;8.05;;;;;;;;;;5008265;28;20504;-81
2022/03/14 04:58:05;;;;;;;12.57;6.18;;;;;;;;;;4991515;28;20030;-81
2022/03/14 05:00:30;;;;;;;14.95;5.88;;;;;;;;;;4988996;28;20022;-82
2022/03/14 05:02:59;;;;;;;12.52;5.25;;;;;;;;;;5003902;28;20066;-81
2022/03/14 05:05:24;;;;;;;;;;;;;;;;;;5003364;28;20022;-81
2022/03/14 05:07:50;;;;;;;12.95;5.18;;;;;;;;;;5000614;28;19920;-81
2022/03/14 05:10:15;;;;;;;16.65;5.40;;;;;;;;;;4996774;28;20758;-79
2022/03/14 05:12:41;;;;;;;11.43;5.45;;;;;;;;;;5003808;28;20031;-80
2022/03/14 05:15:09;;;;;;;11.70;5.10;;;;;;;;;;4995279;28;20474;-79
2022/03/14 05:17:34;;;;;;;12.55;5.35;;;;;;;;;;4992879;28;20611;-80
2022/03/14 05:20:00;;;;;;;13.35;5.00;;;;;;;;;;4985059;28;20054;-79
2022/03/14 05:22:25;;;;;;;12.23;5.22;;;;;;;;;;5000040;28;20030;-80
2022/03/14 05:24:51;;;;;;;10.65;5.22;;;;;;;;;;4993049;28;20057;-79
2022/03/14 05:27:16;;;;;;;10.23;5.07;;;;;;;;;;5001814;28;20042;-80
2022/03/14 05:29:41;;;;;;;12.90;5.60;;;;;;;;;;5002291;28;20541;-77
2022/03/14 05:32:06;;;;;;;11.65;4.80;;;;;;;;;;5009245;28;20021;-80
2022/03/14 05:34:32;;;;;;;13.35;5.32;;;;;;;;;;4983771;28;20033;-79
2022/03/14 05:36:58;;;;;;;17.33;6.22;;;;;;;;;;4991203;28;20125;-81
2022/03/14 05:39:23;;;;;;;11.32;5.18;;;;;;;;;;5004194;28;20466;-80
2022/03/14 05:41:48;;;;;;;12.10;5.60;;;;;;;;;;4984475;28;20019;-80
2022/03/14 05:44:13;;;;;;;10.85;5.05;;;;;;;;;;4977014;28;20034;-80
2022/03/14 05:46:39;;;;;;;14.13;5.32;;;;;;;;;;5001860;28;20030;-81
2022/03/14 05:49:04;;;;;;;15.85;4.85;;;;;;;;;;5004271;28;20030;-80
2022/03/14 05:51:29;;;;;;;11.23;6.03;;;;;;;;;;4997871;28;20533;-80
2022/03/14 05:53:55;;;;;;;13.23;5.65;;;;;;;;;;4997447;28;20033;-80
2022/03/14 05:56:20;;;;;;;10.77;4.97;;;;;;;;;;5003248;28;20382;-80
2022/03/14 05:58:46;;;;;;;8.75;4.85;;;;;;;;;;5004885;28;20125;-79
2022/03/14 06:01:11;;;;;;;15.07;5.80;;;;;;;;;;4986546;28;20029;-81
2022/03/14 06:03:36;;;;;;;16.20;5.55;;;;;;;;;;4996667;28;20076;-79
2022/03/14 06:06:02;;;;;;;11.13;5.47;;;;;;;;;;5007240;28;20019;-79
2022/03/14 06:08:27;;;;;;;13.40;6.38;;;;;;;;;;5000208;28;20032;-80
2022/03/14 06:10:53;;;;;;;14.50;6.80;;;;;;;;;;4996345;28;20554;-80
2022/03/14 06:13:18;;;;;;;10.75;5.78;;;;;;;;;;4976777;28;20427;-82
2022/03/14 06:15:45;;;;;;;15.15;6.85;;;;;;;;;;5007675;28;20030;-81
2022/03/14 06:18:10;;;;;;;10.57;5.07;;;;;;;;;;4999568;28;20093;-79
2022/03/14 06:20:35;;;;;;;10.82;5.20;;;;;;;;;;5005777;28;20057;-81
2022/03/14 06:23:01;;;;;;;18.65;5.68;;;;;;;;;;4985400;28;20037;-79
2022/03/14 06:25:26;;;;;;;12.50;5.55;;;;;;;;;;5010878;28;20018;-79
2022/03/14 06:27:54;;;;;;;12.25;5.72;;;;;;;;;;4989560;28;20027;-80
2022/03/14 06:30:19;;;;;;;18.13;6.72;;;;;;;;;;4994040;28;20287;-79
2022/03/14 06:32:47;;;;;;;13.57;5.88;;;;;;;;;;5002321;28;20546;-79
2022/03/14 06:35:13;;;;;;;13.32;6.22;;;;;;;;;;5011658;28;20113;-79
2022/03/14 06:37:38;;;;;;;11.02;5.85;;;;;;;;;;5004052;28;20025;-82
2022/03/14 06:40:04;;;;;;;11.48;6.07;;;;;;;;;;4994612;28;20030;-82
2022/03/14 06:45:01;;;;;;;10.55;5.68;;;;;;;;;;5012912;28;20512;-80
2022/03/14 06:47:26;;;;;;;12.45;6.57;;;;;;;;;;5009732;28;20017;-79
2022/03/14 06:49:51;;;;;;;14.52;6.30;;;;;;;;;;5002630;28;20044;-79
2022/03/14 06:52:17;;;;;;;16.52;6.43;;;;;;;;;;5021959;28;20018;-80
2022/03/14 06:54:42;;;;;;;13.45;5.97;;;;;;;;;;5032500;28;20040;-81
2022/03/14 06:57:08;;;;;;;13.35;6.45;;;;;;;;;;5008846;28;20488;-79
2022/03/14 06:59:33;;;;;;;13.18;6.75;;;;;;;;;;5031171;28;20075;-79
2022/03/14 07:01:59;;;;;;;18.60;6.45;;;;;;;;;;5003221;28;20028;-79
2022/03/14 07:04:24;;;;;;;11.65;6.30;;;;;;;;;;5019874;28;20032;-79
2022/03/14 07:06:49;;;;;;;15.10;6.82;;;;;;;;;;5000399;28;20104;-80
2022/03/14 07:09:15;;;;;;;18.15;6.47;;;;;;;;;;4998225;28;20029;-79
2022/03/14 07:11:40;;;;;;;15.50;6.32;;;;;;;;;;5017516;28;20473;-78
2022/03/14 07:14:05;;;;;;;17.70;6.97;;;;;;;;;;4998737;28;20036;-78
2022/03/14 07:16:30;;;;;;;12.88;6.30;;;;;;;;;;5023700;28;20165;-78
2022/03/14 07:18:55;;;;;;;11.57;6.30;;;;;;;;;;5035699;28;20044;-79
2022/03/14 07:21:28;;;;;;;15.82;6.80;;;;;;;;;;5029697;28;20043;-77
2022/03/14 07:23:54;;;;;;;13.40;5.65;;;;;;;;;;5018016;28;20030;-78
2022/03/14 07:26:19;;;;;;;26.98;6.53;;;;;;;;;;5021769;28;20377;-79
2022/03/14 07:28:47;;;;;;;14.80;6.80;;;;;;;;;;5033560;28;20025;-77
2022/03/14 07:31:12;;;;;;;20.15;6.18;;;;;;;;;;5022608;28;20045;-79
2022/03/14 07:33:37;;;;;;;13.10;6.05;;;;;;;;;;5032730;28;20030;-81
2022/03/14 07:36:03;;;;;;;13.02;6.65;;;;;;;;;;5017978;28;20053;-78
2022/03/14 07:38:28;;;;;;;19.25;6.85;;;;;;;;;;5022886;28;20084;-78
2022/03/14 07:40:53;;;;;;;15.85;6.38;;;;;;;;;;5024440;28;20036;-77
2022/03/14 07:43:19;;;;;;;14.70;6.45;;;;;;;;;;5033415;28;20388;-78
2022/03/14 07:45:44;;;;;;;12.98;5.80;;;;;;;;;;5031822;28;20112;-78
2022/03/14 07:48:09;;;;;;;20.33;6.78;;;;;;;;;;5026183;28;20035;-79
2022/03/14 07:50:35;;;;;;;13.13;6.57;;;;;;;;;;5025170;28;20055;-75
2022/03/14 07:53:00;;;;;;;13.05;6.75;;;;;;;;;;5020606;28;20037;-76
2022/03/14 07:55:25;;;;;;;12.65;5.78;;;;;;;;;;5003480;28;20405;-76
2022/03/14 07:57:50;;;;;;;14.25;6.35;;;;;;;;;;4999681;28;20496;-76
2022/03/14 08:00:18;;;;;;;14.43;6.47;;;;;;;;;;5020305;28;20097;-76
2022/03/14 08:48:45;;;;;;;14.95;5.85;;;;;;;;;;5019758;28;20025;-79
2022/03/14 08:51:10;;;;;;;20.55;6.70;;;;;;;;;;5016659;28;20026;-80
2022/03/14 08:53:35;;;;;;;16.23;6.47;;;;;;;;;;5024086;28;20023;-79
2022/03/14 08:56:01;;;;;;;15.07;6.15;;;;;;;;;;5007564;28;20048;-79
2022/03/14 08:58:26;;;;;;;13.60;6.43;;;;;;;;;;5022888;28;20052;-79
2022/03/14 09:00:52;;;;;;;13.40;6.75;;;;;;;;;;5023007;28;20098;-78
2022/03/14 09:03:17;;;;;;;12.38;6.30;;;;;;;;;;5001513;28;20021;-79
2022/03/14 09:05:43;;;;;;;13.90;6.50;;;;;;;;;;5031629;28;20027;-79
2022/03/14 09:08:08;;;;;;;12.77;6.10;;;;;;;;;;5021870;28;20104;-79
2022/03/14 09:10:36;;;;;;;17.85;6.53;;;;;;;;;;5021402;28;20024;-80
2022/03/14 09:13:02;;;;;;;15.40;7.47;;;;;;;;;;5010015;28;20033;-79
2022/03/14 09:15:27;;;;;;;17.25;6.35;;;;;;;;;;5017397;28;20025;-79
2022/03/14 09:17:56;;;;;;;12.10;6.53;;;;;;;;;;5011947;28;20068;-79
2022/03/14 09:20:22;;;;;;;16.55;6.45;;;;;;;;;;4995243;28;20026;-79
2022/03/14 09:22:47;;;;;;;19.98;6.68;;;;;;;;;;5021765;28;20036;-79
2022/03/14 09:25:14;;;;;;;15.73;6.85;;;;;;;;;;5014718;28;20021;-77
2022/03/14 09:27:40;;;;;;;11.55;6.28;;;;;;;;;;5019724;28;20030;-79
2022/03/14 09:30:05;;;;;;;15.05;6.38;;;;;;;;;;5014043;28;20033;-79
2022/03/14 09:32:31;;;;;;;15.43;7.10;;;;;;;;;;5008908;28;20025;-79
2022/03/14 09:34:59;;;;;;;13.25;6.32;;;;;;;;;;5020556;28;20488;-78
2022/03/14 09:37:25;;;;;;;14.77;6.75;;;;;;;;;;5001994;28;20213;-78
2022/03/14 09:39:50;;;;;;;11.15;6.55;;;;;;;;;;5017379;28;20022;-79
2022/03/14 09:42:16;;;;;;;13.15;8.55;;;;;;;;;;5024079;28;20120;-78
2022/03/14 09:44:42;;;;;;;20.95;9.00;;;;;;;;;;5026864;28;20028;-79
2022/03/14 09:47:08;;;;;;;20.77;10.05;;;;;;;;;;5019435;28;20022;-79
2022/03/14 09:49:35;;;;;;;18.67;7.68;;;;;;;;;;4998335;28;20040;-78
2022/03/14 09:52:00;;;;;;;22.92;12.40;;;;;;;;;;5026653;28;20038;-79
2022/03/14 09:54:26;;;;;;;14.40;7.68;;;;;;;;;;5003163;28;20128;-79
2022/03/14 09:56:51;;;;;;;22.98;8.57;;;;;;;;;;5021526;28;20064;-80
2022/03/14 09:59:17;;;;;;;18.75;8.48;;;;;;;;;;5018519;28;20505;-80
2022/03/14 10:01:42;;;;;;;15.30;7.75;;;;;;;;;;5026357;28;20017;-79
2022/03/14 10:04:08;;;;;;;14.90;7.07;;;;;;;;;;5019691;28;20485;-79
2022/03/14 10:06:34;;;;;;;14.75;7.30;;;;;;;;;;4995502;28;20018;-79
2022/03/14 10:08:59;;;;;;;15.73;6.85;;;;;;;;;;5005604;28;20490;-77
2022/03/14 10:11:24;;;;;;;19.80;7.68;;;;;;;;;;5009993;28;20049;-77
2022/03/14 10:13:49;;;;;;;17.77;7.57;;;;;;;;;;5007619;28;20037;-79
2022/03/14 10:16:14;;;;;;;18.35;6.63;;;;;;;;;;5019606;28;20085;-79
2022/03/14 10:18:54;;;;;;;15.52;7.38;;;;;;;;;;4999075;28;20022;-79
2022/03/14 10:21:35;;;;;;;12.20;7.30;;;;;;;;;;5025136;28;20014;-79
2022/03/14 10:24:08;;;;;;;12.82;6.30;;;;;;;;;;5023994;28;20097;-77
2022/03/14 10:26:33;;;;;;;15.98;7.60;;;;;;;;;;5023621;28;20029;-78
2022/03/14 10:29:00;;;;;;;15.25;7.32;;;;;;;;;;4998656;28;20080;-79
2022/03/14 10:31:32;;;;;;;17.00;7.55;;;;;;;;;;5004569;28;20032;-78
2022/03/14 10:34:10;;;;;;;14.70;7.07;;;;;;;;;;4998906;28;20028;-79
2022/03/14 10:36:42;;;;;;;17.57;7.47;;;;;;;;;;5017587;28;20065;-79
2022/03/14 10:39:19;;;;;;;16.63;7.30;;;;;;;;;;5013579;28;20267;-79
2022/03/14 10:42:03;;;;;;;21.05;7.72;;;;;;;;;;5021289;28;20120;-78
2022/03/14 10:44:28;;;;;;;18.48;7.35;;;;;;;;;;5023002;28;20076;-78
2022/03/14 10:46:57;;;;;;;16.15;7.22;;;;;;;;;;5004491;28;20493;-79
2022/03/14 10:49:26;;;;;;;15.75;7.05;;;;;;;;;;5026313;28;20075;-77
2022/03/14 10:51:52;;;;;;;;;;;;;;;;;;5000217;28;20022;-79
2022/03/14 10:54:17;;;;;;;21.55;7.68;;;;;;;;;;5020408;28;19996;-79
2022/03/14 10:56:58;;;;;;;15.48;7.53;;;;;;;;;;5018865;28;20113;-79
2022/03/14 10:59:37;;;;;;;16.98;7.50;;;;;;;;;;5020949;28;20018;-78
2022/03/14 11:02:03;;;;;;;16.55;7.43;;;;;;;;;;5022347;28;20022;-78
2022/03/14 11:04:28;;;;;;;16.27;6.95;;;;;;;;;;5018139;28;20113;-78
2022/03/14 11:07:00;;;;;;;19.83;7.72;;;;;;;;;;5031247;28;20100;-78
2022/03/14 11:09:38;;;;;;;16.35;7.90;;;;;;;;;;5018178;28;20044;-79
2022/03/14 11:12:08;;;;;;;13.90;7.65;;;;;;;;;;4996577;28;20572;-79
2022/03/14 11:14:33;;;;;;;16.88;8.00;;;;;;;;;;5014847;28;20481;-78
2022/03/14 11:17:09;;;;;;;17.55;8.13;;;;;;;;;;4999496;28;20142;-78
2022/03/14 11:19:34;;;;;;;14.13;7.72;;;;;;;;;;5030710;28;20013;-78
2022/03/14 11:22:00;;;;;;;15.40;8.15;;;;;;;;;;5021712;28;20488;-78
2022/03/14 11:24:25;;;;;;;14.57;7.72;;;;;;;;;;5027898;28;20025;-78
2022/03/14 11:26:50;;;;;;;13.90;8.00;;;;;;;;;;5020452;28;20238;-78
2022/03/14 11:29:16;;;;;;;17.67;7.47;;;;;;;;;;5021865;28;20033;-78
2022/03/14 11:31:47;;;;;;;17.77;8.25;;;;;;;;;;5023052;28;20037;-78
2022/03/14 11:34:13;;;;;;;15.32;7.70;;;;;;;;;;5025775;28;20026;-78
2022/03/14 11:36:38;;;;;;;19.30;8.70;;;;;;;;;;5022537;28;20494;-78
2022/03/14 11:39:04;;;;;;;13.55;7.82;;;;;;;;;;5015897;28;20060;-78
2022/03/14 11:41:29;;;;;;;17.70;8.32;;;;;;;;;;5024711;28;20017;-78
2022/03/14 11:43:54;;;;;;;13.75;7.45;;;;;;;;;;5023772;28;20109;-78
2022/03/14 11:46:20;;;;;;;14.18;7.60;;;;;;;;;;5022204;28;20065;-78
2022/03/14 11:48:45;;;;;;;21.98;8.20;;;;;;;;;;5008102;28;20084;-78
2022/03/14 11:51:11;;;;;;;16.80;8.13;;;;;;;;;;5024092;28;20037;-78
2022/03/14 11:53:46;;;;;;;15.98;7.88;;;;;;;;;;5024743;28;20032;-78
2022/03/14 11:56:12;;;;;;;18.75;7.78;;;;;;;;;;5009316;28;20030;-78
2022/03/14 11:58:41;;;;;;;15.20;8.13;;;;;;;;;;5013215;28;20484;-79
2022/03/14 12:01:22;;;;;;;15.30;8.15;;;;;;;;;;5016097;28;20080;-78
2022/03/14 12:03:51;;;;;;;16.50;7.82;;;;;;;;;;5017416;28;20022;-79
2022/03/14 12:06:16;;;;;;;12.30;7.43;;;;;;;;;;5022604;28;20034;-79
2022/03/14 12:08:45;;;;;;;14.13;8.20;;;;;;;;;;5022421;28;20389;-79
2022/03/14 12:11:34;;;;;;;13.43;7.40;;;;;;;;;;5010658;28;20028;-79
2022/03/14 12:13:59;;;;;;;13.68;7.45;;;;;;;;;;5012064;28;20137;-79
2022/03/14 12:16:44;;;;;;;11.43;6.50;;;;;;;;;;5015857;28;20018;-78
2022/03/14 12:19:25;;;;;;;12.27;6.70;;;;;;;;;;5014591;28;20052;-79
2022/03/14 12:21:54;;;;;;;11.98;5.82;;;;;;;;;;5022374;28;20025;-78
2022/03/14 12:24:20;;;;;;;12.57;5.78;;;;;;;;;;5005050;28;20030;-78
2022/03/14 12:26:46;;;;;;;10.68;5.78;;;;;;;;;;5027697;28;20041;-79
2022/03/14 12:29:30;;;;;;;13.75;5.28;;;;;;;;;;5020824;28;20022;-79
2022/03/14 12:32:13;;;;;;;9.98;4.97;;;;;;;;;;5020147;28;20046;-78
2022/03/14 12:34:38;;;;;;;9.95;4.85;;;;;;;;;;5014923;28;20040;-78
2022/03/14 12:37:22;;;;;;;15.18;5.10;;;;;;;;;;5013389;28;20017;-78
2022/03/14 12:39:48;;;;;;;7.78;4.82;;;;;;;;;;4995021;28;20022;-78
2022/03/14 12:42:20;;;;;;;17.98;4.97;;;;;;;;;;5023707;28;20020;-78
2022/03/14 12:45:05;;;;;;;7.88;4.57;;;;;;;;;;5022838;23;20050;-81
2022/03/14 12:47:31;;;;;;;11.82;5.45;;;;;;;;;;5006397;28;20029;-82
2022/03/14 12:49:56;;;;;;;10.23;5.55;;;;;;;;;;5015861;28;20052;-80
2022/03/14 12:52:21;;;;;;;14.07;5.90;;;;;;;;;;5016013;28;20022;-84
2022/03/14 12:54:53;;;;;;;11.35;6.00;;;;;;;;;;5091158;27;20747;-81
2022/03/14 12:57:21;;;;;;;12.48;6.65;;;;;;;;;;5085051;28;20116;-79
2022/03/14 12:59:48;;;;;;;13.88;6.60;;;;;;;;;;5086281;28;20021;-81
2022/03/14 13:02:25;;;;;;;12.48;5.75;;;;;;;;;;5086620;28;20032;-80
2022/03/14 13:04:54;;;;;;;11.40;5.88;;;;;;;;;;5090742;28;20078;-80
2022/03/14 13:07:20;;;;;;;13.23;6.35;;;;;;;;;;5090159;28;20024;-78
2022/03/14 13:09:52;;;;;;;11.98;6.30;;;;;;;;;;5090248;28;20025;-79
2022/03/14 13:12:17;;;;;;;10.38;5.93;;;;;;;;;;5089703;28;20326;-80
2022/03/14 13:14:43;;;;;;;14.52;6.40;;;;;;;;;;5084173;28;20040;-83
2022/03/14 13:17:08;;;;;;;13.95;6.40;;;;;;;;;;5095813;28;20024;-81
2022/03/14 13:19:35;;;;;;;19.10;7.15;;;;;;;;;;5083995;28;20024;-88
2022/03/14 13:22:10;;;;;;;11.73;6.40;;;;;;;;;;5087456;28;20043;-81
2022/03/14 13:24:35;;;;;;;12.07;6.72;;;;;;;;;;5091910;28;20067;-82
2022/03/14 13:27:00;;;;;;;16.38;7.25;;;;;;;;;;5098450;28;20028;-82
2022/03/14 13:29:31;;;;;;;12.48;6.93;;;;;;;;;;5094011;28;20021;-84
2022/03/14 13:31:59;;;;;;;13.82;7.38;;;;;;;;;;5093033;28;20036;-84
2022/03/14 13:34:26;;;;;;;13.17;7.60;;;;;;;;;;5076529;28;20028;-85
2022/03/14 13:36:52;;;;;;;14.13;8.05;;;;;;;;;;5092245;28;20024;-83
2022/03/14 13:39:17;;;;;;;15.13;7.63;;;;;;;;;;5082045;28;20422;-84
2022/03/14 13:41:43;;;;;;;19.15;9.07;;;;;;;;;;5090079;28;20042;-83
2022/03/14 13:44:15;;;;;;;14.35;8.65;;;;;;;;;;5083883;28;20028;-81
2022/03/14 13:46:57;;;;;;;15.50;7.78;;;;;;;;;;5084093;28;20024;-82
2022/03/14 13:49:29;;;;;;;14.90;7.28;;;;;;;;;;5078497;28;20024;-81
2022/03/14 13:52:04;;;;;;;13.60;7.68;;;;;;;;;;5088296;28;20129;-81
2022/03/14 13:54:29;;;;;;;13.48;7.70;;;;;;;;;;5081281;28;20029;-82
2022/03/14 13:57:00;;;;;;;13.72;7.44;;;;;;;;;;5084068;28;21748;-82
2022/03/14 13:59:33;;;;;;;14.00;7.60;;;;;;;;;;5076466;28;20532;-81
2022/03/14 14:01:58;;;;;;;11.40;6.93;;;;;;;;;;5086994;28;20021;-80
2022/03/14 14:04:28;;;;;;;13.50;7.22;;;;;;;;;;5085694;28;20058;-82
2022/03/14 14:06:56;;;;;;;9.52;6.30;;;;;;;;;;5070106;28;20093;-82
2022/03/14 14:09:23;;;;;;;13.68;6.43;;;;;;;;;;5067861;28;20431;-82
2022/03/14 14:12:00;;;;;;;16.20;6.95;;;;;;;;;;5066225;28;20029;-81
2022/03/14 14:14:26;;;;;;;12.50;6.45;;;;;;;;;;5072211;28;20043;-80
2022/03/14 14:16:52;;;;;;;12.38;6.88;;;;;;;;;;5073935;28;20071;-81
2022/03/14 14:19:17;;;;;;;11.90;6.60;;;;;;;;;;5071301;28;20348;-81
2022/03/14 14:21:53;;;;;;;16.52;7.88;;;;;;;;;;5069286;28;20111;-81
2022/03/14 14:24:22;;;;;;;11.73;6.55;;;;;;;;;;5070236;28;20055;-81
2022/03/14 14:26:47;;;;;;;12.13;7.10;;;;;;;;;;5068074;28;20060;-80
2022/03/14 14:29:32;;;;;;;14.00;6.78;;;;;;;;;;5066384;28;20446;-81
2022/03/14 14:32:20;;;;;;;17.35;7.47;;;;;;;;;;5072324;28;20020;-80
2022/03/14 14:34:46;;;;;;;14.48;7.32;;;;;;;;;;5063644;28;20055;-82
2022/03/14 14:37:11;;;;;;;16.40;7.57;;;;;;;;;;5075291;28;20498;-81
2022/03/14 14:39:37;;;;;;;13.63;7.18;;;;;;;;;;5062369;28;20380;-81
2022/03/14 14:42:10;;;;;;;15.75;7.63;;;;;;;;;;5073551;28;20021;-82
2022/03/14 14:44:35;;;;;;;15.80;7.68;;;;;;;;;;5061176;28;20017;-82
2022/03/14 14:47:00;;;;;;;12.65;7.28;;;;;;;;;;5075153;28;20116;-81
2022/03/14 14:49:26;;;;;;;12.85;7.40;;;;;;;;;;5066357;28;20476;-81
2022/03/14 14:51:51;;;;;;;11.77;7.40;;;;;;;;;;5073619;28;20075;-81
2022/03/14 14:54:17;;;;;;;12.15;7.35;;;;;;;;;;5064384;28;20031;-81
2022/03/14 14:56:42;;;;;;;18.60;10.45;;;;;;;;;;5066418;28;20526;-82
2022/03/14 14:59:07;;;;;;;12.15;7.07;;;;;;;;;;5066872;28;20012;-80
2022/03/14 15:01:32;;;;;;;12.60;6.57;;;;;;;;;;5073323;28;20009;-84
2022/03/14 15:03:58;;;;;;;13.30;6.88;;;;;;;;;;5079305;28;20377;-83
2022/03/14 15:06:23;;;;;;;14.65;6.05;;;;;;;;;;5078410;28;20054;-82
2022/03/14 15:08:48;;;;;;;17.83;6.60;;;;;;;;;;5066232;28;20507;-82
2022/03/14 15:11:14;;;;;;;13.10;6.57;;;;;;;;;;5070571;28;20476;-81
2022/03/14 15:13:39;;;;;;;13.45;6.43;;;;;;;;;;5068325;28;20017;-81
2022/03/14 15:16:04;;;;;;;11.85;7.00;;;;;;;;;;5068950;28;20013;-82
2022/03/14 15:18:29;;;;;;;17.45;7.30;;;;;;;;;;5069824;28;20012;-81